Terminal Aerodrome Forecast
Issued by NWS

Home | Current Version | Previous Version | Graphics & Text | Print | Product List | Glossary On
Versions: 1 2 3 4 5 6 7 8 9 10 11 12 13 14 15 16 17
000
FTUS43 KGRB 250500
TAFCWA
TAF
KCWA 250521Z 2506/2606 14007KT 5SM BR OVC006
      TEMPO 2508/2510 1SM +TSRA OVC012CB
     FM251400 20005KT P6SM BKN015
     FM251800 22009G17KT P6SM SCT035 BKN080
      AMD LTD TO CLD VIS AND WIND TIL 251200=

USA.gov is the U.S. government's official web portal to all federal, state and local government web resources and services.